createdAt,value
2019-01-15T00:01:09.821Z,98282.60
2019-01-15T00:03:38.623Z,98284.45
2019-01-15T00:06:07.395Z,98297.77
2019-01-15T00:08:36.079Z,98302.61
2019-01-15T00:11:05.337Z,98306.01
2019-01-15T00:13:34.018Z,98311.25
2019-01-15T00:16:02.716Z,98321.76
2019-01-15T00:18:31.437Z,98317.80
2019-01-15T00:21:00.115Z,98319.09
2019-01-15T00:23:28.801Z,98324.62
2019-01-15T00:25:57.505Z,98327.72
2019-01-15T00:28:26.191Z,98330.38
2019-01-15T00:30:54.860Z,98325.23
2019-01-15T00:33:23.929Z,98341.53
2019-01-15T00:35:52.603Z,98332.89
2019-01-15T00:38:21.270Z,98340.97
2019-01-15T00:40:50.066Z,98341.97
2019-01-15T00:43:18.741Z,98341.28
2019-01-15T00:45:47.426Z,98358.66
2019-01-15T00:48:16.284Z,98358.66
2019-01-15T00:50:44.950Z,98363.13
2019-01-15T00:53:13.622Z,98356.56
2019-01-15T00:55:42.632Z,98352.78
2019-01-15T00:58:13.277Z,98352.06
2019-01-15T01:00:41.943Z,98352.32
2019-01-15T01:03:10.742Z,98359.08
2019-01-15T01:05:39.412Z,98355.29
2019-01-15T01:08:08.083Z,98361.31
2019-01-15T01:10:36.912Z,98356.20
2019-01-15T01:13:05.958Z,98361.05
2019-01-15T01:15:34.640Z,98361.93
2019-01-15T01:18:03.414Z,98351.12
2019-01-15T01:20:33.099Z,98342.14
2019-01-15T01:23:01.780Z,98347.31
2019-01-15T01:25:30.876Z,98344.60
2019-01-15T01:27:59.545Z,98350.29
2019-01-15T01:30:28.216Z,98344.50
2019-01-15T01:32:57.317Z,98346.31
2019-01-15T01:35:25.992Z,98346.89
2019-01-15T01:37:54.710Z,98340.91
2019-01-15T01:40:23.572Z,98333.70
2019-01-15T01:42:52.238Z,98334.52
2019-01-15T01:45:20.921Z,98324.30
2019-01-15T01:47:49.745Z,98325.55
2019-01-15T01:50:18.419Z,98337.05
2019-01-15T01:52:47.081Z,98319.38
2019-01-15T01:55:16.104Z,98329.49
2019-01-15T01:57:44.884Z,98329.30
2019-01-15T02:00:18.514Z,98318.59
2019-01-15T02:02:47.327Z,98332.89
2019-01-15T02:05:15.997Z,98336.47
2019-01-15T02:07:48.278Z,98336.53
2019-01-15T02:10:18.034Z,98345.91
2019-01-15T02:12:46.925Z,98346.86
2019-01-15T02:15:20.606Z,98334.95
2019-01-15T02:17:50.702Z,98333.41
2019-01-15T02:20:20.489Z,98319.67
2019-01-15T02:22:49.854Z,98342.13
2019-01-15T02:25:18.903Z,98331.39
2019-01-15T02:27:49.239Z,98340.41
2019-01-15T02:30:19.930Z,98338.66
2019-01-15T02:32:48.782Z,98349.30
2019-01-15T02:35:17.451Z,98341.23
2019-01-15T02:37:46.276Z,98347.20
2019-01-15T02:40:16.755Z,98347.25
2019-01-15T02:42:46.812Z,98354.54
2019-01-15T02:45:18.870Z,98356.16
2019-01-15T02:47:48.264Z,98354.50
2019-01-15T02:50:18.827Z,98346.98
2019-01-15T02:52:47.597Z,98346.98
2019-01-15T02:55:16.726Z,98353.49
2019-01-15T02:57:45.486Z,98342.70
2019-01-15T03:00:16.946Z,98344.81
2019-01-15T03:02:46.224Z,98349.71
2019-01-15T03:05:15.193Z,98353.56
2019-01-15T03:07:43.866Z,98369.83
2019-01-15T03:10:15.761Z,98362.10
2019-01-15T03:12:46.007Z,98366.04
2019-01-15T03:15:14.884Z,98370.90
2019-01-15T03:17:43.687Z,98372.70
2019-01-15T03:20:17.129Z,98371.96
2019-01-15T03:22:45.807Z,98376.86
2019-01-15T03:25:14.932Z,98377.70
2019-01-15T03:27:43.749Z,98381.03
2019-01-15T03:30:20.953Z,98381.03
2019-01-15T03:32:49.628Z,98386.67
2019-01-15T03:35:18.497Z,98386.67
2019-01-15T03:37:47.232Z,98388.73
2019-01-15T03:40:24.085Z,98396.72
2019-01-15T03:42:53.002Z,98407.54
2019-01-15T03:45:21.674Z,98410.19
2019-01-15T03:47:50.359Z,98416.14
2019-01-15T03:50:19.150Z,98413.63
2019-01-15T03:52:47.822Z,98412.12
2019-01-15T03:55:17.093Z,98409.30
2019-01-15T03:57:45.958Z,98409.30
2019-01-15T04:00:17.231Z,98436.00
2019-01-15T04:02:46.102Z,98436.56
2019-01-15T04:05:16.827Z,98436.56
2019-01-15T04:07:46.394Z,98444.08
2019-01-15T04:10:15.067Z,98451.06
2019-01-15T04:12:43.982Z,98471.50
2019-01-15T04:15:13.858Z,98474.87
2019-01-15T04:17:42.552Z,98480.86
2019-01-15T04:20:18.626Z,98485.05
2019-01-15T04:22:48.743Z,98479.41
2019-01-15T04:25:17.432Z,98482.98
2019-01-15T04:27:46.173Z,98486.34
2019-01-15T04:30:17.315Z,98474.80
2019-01-15T04:32:46.187Z,98481.73
2019-01-15T04:35:15.091Z,98493.55
2019-01-15T04:37:43.766Z,98495.34
2019-01-15T04:40:15.399Z,98500.95
2019-01-15T04:42:44.135Z,98500.95
2019-01-15T04:45:15.624Z,98492.16
2019-01-15T04:47:44.276Z,98496.58
2019-01-15T04:50:13.389Z,98497.88
2019-01-15T04:52:43.866Z,98509.73
2019-01-15T04:55:12.850Z,98509.73
2019-01-15T04:57:41.662Z,98501.77
2019-01-15T05:00:21.672Z,98515.93
2019-01-15T05:02:50.728Z,98508.70
2019-01-15T05:05:20.325Z,98499.91
2019-01-15T05:07:49.622Z,98515.16
2019-01-15T05:10:18.967Z,98508.94
2019-01-15T05:12:47.629Z,98508.94
2019-01-15T05:15:19.006Z,98498.13
2019-01-15T05:17:47.743Z,98498.13
2019-01-15T05:20:18.685Z,98515.69
2019-01-15T05:22:47.343Z,98515.69
2019-01-15T05:25:18.674Z,98524.49
2019-01-15T05:27:47.351Z,98524.49
2019-01-15T05:30:21.508Z,98514.67
2019-01-15T05:32:50.320Z,98528.32
2019-01-15T05:35:20.446Z,98526.77
2019-01-15T05:37:49.110Z,98526.77
2019-01-15T05:40:17.838Z,98527.83
2019-01-15T05:42:46.692Z,98530.66
2019-01-15T05:45:22.037Z,98529.36
2019-01-15T05:47:52.499Z,98525.50
2019-01-15T05:50:28.618Z,98529.63
2019-01-15T05:52:57.362Z,98535.57
2019-01-15T05:55:26.043Z,98540.73
2019-01-15T05:57:54.721Z,98546.39
2019-01-15T06:00:23.547Z,98535.07
2019-01-15T06:02:52.246Z,98542.02
2019-01-15T06:05:20.916Z,98548.98
2019-01-15T06:07:49.753Z,98545.38
2019-01-15T06:10:18.429Z,98561.36
2019-01-15T06:12:47.119Z,98563.42
2019-01-15T06:15:16.965Z,98560.87
2019-01-15T06:17:45.746Z,98571.95
2019-01-15T06:20:22.131Z,98571.95
2019-01-15T06:22:50.819Z,98573.48
2019-01-15T06:25:19.968Z,98587.64
2019-01-15T06:27:48.752Z,98599.77
2019-01-15T06:30:20.099Z,98598.22
2019-01-15T06:32:48.769Z,98593.31
2019-01-15T06:35:17.495Z,98598.72
2019-01-15T06:37:46.261Z,98602.05
2019-01-15T06:40:19.471Z,98614.16
2019-01-15T06:42:48.286Z,98609.80
2019-01-15T06:45:20.142Z,98607.23
2019-01-15T06:47:48.831Z,98607.23
2019-01-15T06:50:17.650Z,98607.23
2019-01-15T06:52:46.328Z,98616.25
2019-01-15T06:55:17.645Z,98621.10
2019-01-15T06:57:46.466Z,98621.10
2019-01-15T07:00:18.054Z,98625.23
2019-01-15T07:02:46.838Z,98629.10
2019-01-15T07:05:16.040Z,98627.52
2019-01-15T07:07:45.586Z,98627.52
2019-01-15T07:10:17.559Z,98626.95
2019-01-15T07:12:46.257Z,98639.80
2019-01-15T07:15:15.047Z,98642.59
2019-01-15T07:17:43.719Z,98638.92
2019-01-15T07:20:18.956Z,98642.15
2019-01-15T07:22:47.628Z,98649.86
2019-01-15T07:25:18.806Z,98645.47
2019-01-15T07:27:47.605Z,98640.76
2019-01-15T07:30:19.049Z,98635.44
2019-01-15T07:32:47.732Z,98652.41
2019-01-15T07:35:16.562Z,98637.45
2019-01-15T07:37:45.242Z,98640.99
2019-01-15T07:40:14.626Z,98642.46
2019-01-15T07:42:43.794Z,98650.23
2019-01-15T07:45:14.317Z,98658.73
2019-01-15T07:47:43.085Z,98653.92
2019-01-15T07:50:19.645Z,98658.71
2019-01-15T07:52:48.724Z,98667.34
2019-01-15T07:55:19.094Z,98662.22
2019-01-15T07:57:47.770Z,98682.81
2019-01-15T08:00:23.685Z,98670.88
2019-01-15T08:02:53.923Z,98684.79
2019-01-15T08:05:25.368Z,98682.20
2019-01-15T08:07:54.439Z,98674.53
2019-01-15T08:10:23.144Z,98673.22
2019-01-15T08:12:51.820Z,98675.61
2019-01-15T08:15:22.699Z,98661.66
2019-01-15T08:17:51.529Z,98676.31
2019-01-15T08:20:20.405Z,98679.11
2019-01-15T08:22:49.082Z,98688.61
2019-01-15T08:25:18.397Z,98700.02
2019-01-15T08:27:47.171Z,98692.21
2019-01-15T08:30:18.647Z,98698.94
2019-01-15T08:32:47.402Z,98701.34
2019-01-15T08:35:16.385Z,98700.89
2019-01-15T08:37:45.056Z,98716.25
2019-01-15T08:40:15.793Z,98724.33
2019-01-15T08:42:44.566Z,98716.35
2019-01-15T08:45:15.507Z,98719.76
2019-01-15T08:48:01.139Z,98719.47
2019-01-15T08:50:33.532Z,98717.57
2019-01-15T08:53:02.198Z,98732.42
2019-01-15T08:55:31.078Z,98738.70
2019-01-15T08:57:59.761Z,98732.91
2019-01-15T09:00:28.447Z,98725.67
2019-01-15T09:02:57.189Z,98729.70
2019-01-15T09:05:25.867Z,98725.66
2019-01-15T09:07:54.541Z,98717.12
2019-01-15T09:10:23.366Z,98713.63
2019-01-15T09:12:52.466Z,98713.63
2019-01-15T09:15:22.643Z,98698.23
2019-01-15T09:17:51.432Z,98715.64
2019-01-15T09:20:21.605Z,98721.37
2019-01-15T09:22:50.380Z,98734.95
2019-01-15T09:25:19.323Z,98724.00
2019-01-15T09:27:47.996Z,98732.72
2019-01-15T09:30:21.644Z,98721.53
2019-01-15T09:32:50.975Z,98728.90
2019-01-15T09:35:19.747Z,98725.36
2019-01-15T09:37:49.727Z,98721.95
2019-01-15T09:40:23.188Z,98721.51
2019-01-15T09:42:51.866Z,98711.91
2019-01-15T09:45:22.531Z,98723.75
2019-01-15T09:48:02.231Z,98717.72
2019-01-15T09:50:30.909Z,98710.00
2019-01-15T09:52:59.788Z,98721.66
2019-01-15T09:55:28.610Z,98722.30
2019-01-15T09:57:57.280Z,98694.62
2019-01-15T10:00:25.947Z,98691.86
2019-01-15T10:02:54.767Z,98712.45
2019-01-15T10:05:23.428Z,98705.04
2019-01-15T10:07:52.108Z,98711.58
2019-01-15T10:10:21.140Z,98715.41
2019-01-15T10:12:49.809Z,98718.52
2019-01-15T10:15:20.407Z,98701.41
2019-01-15T10:17:49.531Z,98710.25
2019-01-15T10:20:19.314Z,98701.47
2019-01-15T10:22:49.085Z,98703.91
2019-01-15T10:25:19.672Z,98708.31
2019-01-15T10:27:52.547Z,98671.78
2019-01-15T10:30:54.466Z,98707.14
2019-01-15T10:33:28.998Z,98705.77
2019-01-15T10:35:57.954Z,98722.64
2019-01-15T10:38:29.230Z,98685.27
2019-01-15T10:40:58.403Z,98691.20
2019-01-15T10:43:28.259Z,98677.88
2019-01-15T10:45:56.926Z,98697.10
2019-01-15T10:48:25.594Z,98673.70
2019-01-15T10:50:54.511Z,98678.84
2019-01-15T10:53:23.178Z,98697.70
2019-01-15T10:55:51.854Z,98701.85
2019-01-15T10:58:21.054Z,98700.92
2019-01-15T11:00:49.720Z,98717.06
2019-01-15T11:03:18.404Z,98697.22
2019-01-15T11:05:47.137Z,98688.67
2019-01-15T11:08:15.915Z,98722.77
2019-01-15T11:10:44.593Z,98739.69
2019-01-15T11:13:13.431Z,98732.79
2019-01-15T11:15:43.422Z,98718.63
2019-01-15T11:18:12.367Z,98732.30
2019-01-15T11:20:41.187Z,98743.28
2019-01-15T11:23:09.949Z,98732.61
2019-01-15T11:25:38.617Z,98740.67
2019-01-15T11:28:07.359Z,98739.77
2019-01-15T11:30:36.057Z,98752.22
2019-01-15T11:35:35.541Z,98726.30
2019-01-15T11:38:04.616Z,98753.42
2019-01-15T11:40:33.293Z,98754.52
2019-01-15T11:43:02.068Z,98741.56
2019-01-15T11:45:30.733Z,98760.16
2019-01-15T11:48:00.006Z,98767.70
2019-01-15T11:50:28.840Z,98750.92
2019-01-15T11:52:57.526Z,98769.44
2019-01-15T11:55:26.188Z,98759.34
2019-01-15T11:57:54.923Z,98787.25
2019-01-15T12:00:38.912Z,98734.78
2019-01-15T12:03:18.479Z,98761.91
2019-01-15T12:05:48.723Z,98793.92
2019-01-15T12:08:18.980Z,98761.73
2019-01-15T12:11:07.105Z,98799.88
2019-01-15T12:13:52.168Z,98799.31
2019-01-15T12:16:22.566Z,98809.70
2019-01-15T12:18:55.797Z,98808.05
2019-01-15T12:21:41.246Z,98815.34
2019-01-15T12:24:29.031Z,98810.57
2019-01-15T12:27:02.281Z,98817.23
2019-01-15T12:29:38.419Z,98803.55
2019-01-15T12:32:15.286Z,98811.17
2019-01-15T12:34:51.450Z,98830.42
2019-01-15T12:37:24.567Z,98801.61
2019-01-15T12:40:10.101Z,98810.91
2019-01-15T12:42:40.487Z,98827.91
2019-01-15T12:45:19.747Z,98842.82
2019-01-15T12:48:06.700Z,98838.67
2019-01-15T12:50:36.952Z,98829.47
2019-01-15T12:53:23.661Z,98825.27
2019-01-15T12:56:10.223Z,98853.34
2019-01-15T12:58:49.346Z,98831.26
2019-01-15T13:01:35.929Z,98854.92
2019-01-15T13:04:18.175Z,98862.70
2019-01-15T13:06:55.717Z,98851.56
2019-01-15T13:09:29.091Z,98849.77
2019-01-15T13:12:15.373Z,98873.97
2019-01-15T13:14:48.739Z,98861.61
2019-01-15T13:17:37.378Z,98871.47
2019-01-15T13:20:16.991Z,98870.27
2019-01-15T13:22:55.987Z,98870.80
2019-01-15T13:25:42.011Z,98872.13
2019-01-15T13:28:30.816Z,98876.28
2019-01-15T13:31:07.204Z,98884.86
2019-01-15T13:33:37.464Z,98894.42
2019-01-15T13:36:24.810Z,98884.64
2019-01-15T13:39:00.808Z,98887.74
2019-01-15T13:41:31.107Z,98888.25
2019-01-15T13:44:17.694Z,98888.25
2019-01-15T13:47:03.186Z,98888.89
2019-01-15T13:49:39.527Z,98888.89
2019-01-15T13:52:22.215Z,98903.60
2019-01-15T13:55:07.771Z,98902.02
2019-01-15T13:57:38.392Z,98907.20
2019-01-15T14:00:14.529Z,98910.09
2019-01-15T14:02:54.065Z,98902.59
2019-01-15T14:05:40.847Z,98922.75
2019-01-15T14:08:26.758Z,98926.61
2019-01-15T14:11:02.537Z,98923.28
2019-01-15T14:13:32.874Z,98920.43
2019-01-15T14:16:09.051Z,98905.73
2019-01-15T14:18:42.343Z,98928.28
2019-01-15T14:21:15.550Z,98928.02
2019-01-15T14:23:45.749Z,98929.59
2019-01-15T14:26:28.897Z,98942.28
2019-01-15T14:29:15.269Z,98932.19
2019-01-15T14:31:48.755Z,98939.19
2019-01-15T14:34:21.883Z,98953.41
2019-01-15T14:36:54.914Z,98957.80
2019-01-15T14:39:37.448Z,98957.78
2019-01-15T14:42:10.936Z,98967.08
2019-01-15T14:44:50.177Z,98970.70
2019-01-15T14:47:32.273Z,98975.55
2019-01-15T14:50:02.535Z,98977.90
2019-01-15T14:52:32.878Z,98975.55
2019-01-15T14:55:03.361Z,98964.44
2019-01-15T14:57:33.607Z,98993.82
2019-01-15T15:00:10.184Z,98990.70
2019-01-15T15:02:49.643Z,98990.70
2019-01-15T15:05:26.146Z,98990.14
2019-01-15T15:08:05.552Z,99013.02
2019-01-15T15:10:43.071Z,99013.02
2019-01-15T15:13:16.309Z,99015.05
2019-01-15T15:15:46.577Z,99007.34
2019-01-15T15:18:16.999Z,99026.45
2019-01-15T15:20:50.991Z,99033.10
2019-01-15T15:23:25.324Z,99024.81
2019-01-15T15:26:01.348Z,99039.97
2019-01-15T15:28:32.138Z,99036.58
2019-01-15T15:31:20.210Z,99054.56
2019-01-15T15:33:53.343Z,99054.56
2019-01-15T15:36:29.359Z,99054.23
2019-01-15T15:38:59.775Z,99058.45
2019-01-15T15:41:42.122Z,99067.08
2019-01-15T15:44:24.315Z,99077.83
2019-01-15T15:46:56.106Z,99087.81
2019-01-15T15:49:41.759Z,99091.40
2019-01-15T15:52:28.339Z,99087.85
2019-01-15T15:54:58.747Z,99087.85
2019-01-15T15:57:32.016Z,99090.66
2019-01-15T16:00:05.689Z,99105.16
2019-01-15T16:02:35.934Z,99101.09
2019-01-15T16:05:24.014Z,99091.27
2019-01-15T16:07:54.225Z,99097.98
2019-01-15T16:10:30.968Z,99104.59
2019-01-15T16:13:01.212Z,99113.31
2019-01-15T16:15:34.444Z,99111.16
2019-01-15T16:18:10.751Z,99110.20
2019-01-15T16:20:40.996Z,99131.57
2019-01-15T16:23:14.131Z,99133.53
2019-01-15T16:25:50.467Z,99133.67
2019-01-15T16:28:26.822Z,99136.13
2019-01-15T16:30:57.220Z,99137.77
2019-01-15T16:33:33.251Z,99136.70
2019-01-15T16:36:03.891Z,99141.06
2019-01-15T16:38:34.150Z,99148.97
2019-01-15T16:41:19.654Z,99144.89
2019-01-15T16:44:02.045Z,99147.77
2019-01-15T16:46:32.367Z,99151.34
2019-01-15T16:49:17.615Z,99152.91
2019-01-15T16:51:47.925Z,99153.73
2019-01-15T16:54:18.168Z,99160.16
2019-01-15T16:56:48.409Z,99162.05
2019-01-15T16:59:30.741Z,99164.37
2019-01-15T17:02:04.011Z,99163.63
2019-01-15T17:04:50.602Z,99171.55
2019-01-15T17:07:23.837Z,99176.17
2019-01-15T17:09:54.079Z,99185.81
2019-01-15T17:12:30.415Z,99177.86
2019-01-15T17:15:00.671Z,99188.60
2019-01-15T17:31:11.803Z,99211.06
2019-01-15T17:33:54.300Z,99214.92
2019-01-15T17:36:43.007Z,99225.98
2019-01-15T17:39:29.474Z,99230.97
2019-01-15T17:42:12.217Z,99242.64
2019-01-15T17:44:45.536Z,99244.58
2019-01-15T17:47:15.793Z,99259.75
2019-01-15T17:50:02.593Z,99257.57
2019-01-15T17:52:35.570Z,99272.25
2019-01-15T17:55:13.235Z,99274.87
2019-01-15T17:58:00.093Z,99285.45
2019-01-15T18:00:36.250Z,99289.30
2019-01-15T18:03:25.698Z,99291.82
2019-01-15T18:05:56.007Z,99294.18
2019-01-15T18:08:34.890Z,99292.61
2019-01-15T18:11:05.217Z,99297.34
2019-01-15T18:14:04.669Z,99285.45
2019-01-15T18:16:34.977Z,99302.88
2019-01-15T18:19:08.145Z,99303.88
2019-01-15T18:21:41.362Z,99312.94
2019-01-15T18:24:26.508Z,99311.62
2019-01-15T18:27:13.214Z,99320.38
2019-01-15T18:29:52.445Z,99321.98
2019-01-15T18:32:32.667Z,99331.49
2019-01-15T18:35:10.299Z,99331.49
2019-01-15T18:37:49.065Z,99331.67
2019-01-15T18:40:36.918Z,99351.38
2019-01-15T18:43:16.256Z,99364.83
2019-01-15T18:45:46.518Z,99364.83
2019-01-15T18:48:33.011Z,99373.45
2019-01-15T18:51:19.458Z,99373.45
2019-01-15T18:53:50.204Z,99365.60
2019-01-15T18:56:26.285Z,99376.59
2019-01-15T18:59:13.050Z,99379.84
2019-01-15T19:01:43.310Z,99384.98
2019-01-15T19:04:21.099Z,99388.92
2019-01-15T19:06:51.357Z,99391.87
2019-01-15T19:09:33.657Z,99391.87
2019-01-15T19:12:03.912Z,99397.41
2019-01-15T19:14:49.670Z,99405.34
2019-01-15T19:17:36.290Z,99414.55
2019-01-15T19:20:18.733Z,99416.75
2019-01-15T19:22:55.171Z,99418.50
2019-01-15T19:25:31.282Z,99417.20
2019-01-15T19:28:01.566Z,99413.56
2019-01-15T19:30:44.103Z,99413.56
2019-01-15T19:33:20.262Z,99427.80
2019-01-15T19:36:07.434Z,99437.81
2019-01-15T19:38:40.705Z,99437.81
2019-01-15T19:41:27.479Z,99446.27
2019-01-15T19:44:15.959Z,99446.27
2019-01-15T19:47:02.777Z,99454.12
2019-01-15T19:49:33.025Z,99445.77
2019-01-15T19:52:06.022Z,99445.77
2019-01-15T19:54:42.588Z,99451.34
2019-01-15T19:57:28.167Z,99458.48
2019-01-15T20:00:16.406Z,99470.78
2019-01-15T20:02:52.650Z,99470.78
2019-01-15T20:05:23.106Z,99468.58
2019-01-15T20:08:02.547Z,99470.67
2019-01-15T20:10:41.759Z,99470.30
2019-01-15T20:13:18.032Z,99470.30
2019-01-15T20:15:51.172Z,99486.80
2019-01-15T20:18:24.519Z,99478.13
2019-01-15T20:20:54.775Z,99488.63
2019-01-15T20:23:37.237Z,99488.63
2019-01-15T20:26:19.349Z,99493.36
2019-01-15T20:29:06.090Z,99496.48
2019-01-15T20:31:45.519Z,99496.48
2019-01-15T20:34:30.819Z,99495.38
2019-01-15T20:37:01.141Z,99485.89
2019-01-15T20:39:34.181Z,99494.45
2019-01-15T20:42:07.570Z,99507.16
2019-01-15T20:44:37.832Z,99507.16
2019-01-15T20:47:14.164Z,99508.31
2019-01-15T20:50:00.840Z,99505.78
2019-01-15T20:52:37.275Z,99505.78
2019-01-15T20:55:12.826Z,99515.44
2019-01-15T20:57:43.929Z,99527.76
2019-01-15T21:00:14.450Z,99527.76
2019-01-15T21:02:56.745Z,99523.51
2019-01-15T21:05:33.210Z,99524.50
2019-01-15T21:08:03.515Z,99524.50
2019-01-15T21:10:49.058Z,99529.20
2019-01-15T21:13:19.348Z,99529.20
2019-01-15T21:15:49.590Z,99529.42
2019-01-15T21:18:29.008Z,99526.38
2019-01-15T21:21:15.389Z,99537.69
2019-01-15T21:23:51.757Z,99537.69
2019-01-15T21:26:28.069Z,99524.60
2019-01-15T21:29:01.490Z,99524.60
2019-01-15T21:31:37.866Z,99533.16
2019-01-15T21:34:08.274Z,99535.07
2019-01-15T21:36:54.947Z,99537.99
2019-01-15T21:39:25.261Z,99537.01
2019-01-15T21:41:58.696Z,99526.06
2019-01-15T21:44:44.326Z,99528.45
2019-01-15T21:47:17.571Z,99523.45
2019-01-15T21:49:53.854Z,99533.38
2019-01-15T21:52:32.916Z,99533.38
2019-01-15T21:55:12.602Z,99540.77
2019-01-15T21:57:42.859Z,99547.28
2019-01-15T22:00:14.711Z,99538.79
2019-01-15T22:02:45.422Z,99544.61
2019-01-15T22:05:21.633Z,99544.61
2019-01-15T22:08:07.792Z,99538.13
2019-01-15T22:10:40.996Z,99542.20
2019-01-15T22:13:11.267Z,99550.44
2019-01-15T22:15:50.832Z,99551.30
2019-01-15T22:18:23.894Z,99551.30
2019-01-15T22:20:54.132Z,99551.98
2019-01-15T22:23:30.433Z,99551.98
2019-01-15T22:26:00.669Z,99547.15
2019-01-15T22:28:49.393Z,99554.75
2019-01-15T22:31:22.387Z,99553.89
2019-01-15T22:34:01.757Z,99559.37
2019-01-15T22:36:50.275Z,99551.48
2019-01-15T22:39:20.690Z,99551.48
2019-01-15T22:41:59.978Z,99555.50
2019-01-15T22:44:33.066Z,99555.50
2019-01-15T22:47:06.115Z,99556.84
2019-01-15T22:49:42.896Z,99558.56
2019-01-15T22:52:25.227Z,99563.66
2019-01-15T22:55:12.013Z,99563.66
2019-01-15T22:57:48.103Z,99561.16
2019-01-15T23:00:43.668Z,99566.95
2019-01-15T23:03:30.016Z,99566.95
2019-01-15T23:06:09.244Z,99578.14
2019-01-15T23:08:42.601Z,99578.14
2019-01-15T23:11:12.848Z,99564.95
2019-01-15T23:13:46.229Z,99566.86
2019-01-15T23:16:16.477Z,99560.11
2019-01-15T23:18:59.141Z,99558.29
2019-01-15T23:21:32.384Z,99558.29
2019-01-15T23:24:11.718Z,99563.86
2019-01-15T23:26:48.001Z,99570.20
2019-01-15T23:29:18.336Z,99569.91
2019-01-15T23:31:48.582Z,99566.72
2019-01-15T23:34:18.835Z,99579.03
2019-01-15T23:36:49.207Z,99579.03
2019-01-15T23:39:28.724Z,99575.74
2019-01-15T23:42:10.975Z,99588.28
2019-01-15T23:44:49.961Z,99588.28
2019-01-15T23:47:38.620Z,99586.14
2019-01-15T23:50:11.194Z,99596.53
2019-01-15T23:52:57.995Z,99597.82
2019-01-15T23:55:44.739Z,99620.07
2019-01-15T23:58:15.056Z,99601.09
